createdAt,value
2017-10-17T00:02:52.982Z,15.93
2017-10-17T00:05:54.941Z,15.18
2017-10-17T00:08:57.298Z,13.05
2017-10-17T00:11:59.238Z,12.60
2017-10-17T00:15:01.240Z,15.43
2017-10-17T00:18:03.198Z,14.52
2017-10-17T00:21:05.165Z,12.37
2017-10-17T00:24:07.089Z,18.83
2017-10-17T00:27:10.967Z,16.77
2017-10-17T00:30:12.948Z,27.23
2017-10-17T00:33:14.925Z,15.68
2017-10-17T00:36:17.764Z,13.77
2017-10-17T00:39:20.179Z,15.95
2017-10-17T00:42:22.107Z,18.27
2017-10-17T00:45:24.117Z,16.67
2017-10-17T00:48:26.058Z,15.45
2017-10-17T00:51:28.779Z,16.52
2017-10-17T00:54:30.707Z,17.45
2017-10-17T00:57:32.678Z,19.02
2017-10-17T01:00:34.615Z,14.68
2017-10-17T01:03:37.357Z,16.02
2017-10-17T01:06:39.286Z,14.82
2017-10-17T01:09:42.013Z,13.43
2017-10-17T01:12:44.171Z,17.23
2017-10-17T01:15:46.884Z,17.75
2017-10-17T01:18:49.593Z,14.77
2017-10-17T01:21:51.545Z,13.43
2017-10-17T01:24:54.265Z,15.00
2017-10-17T01:28:08.693Z,19.12
2017-10-17T01:31:10.647Z,16.70
2017-10-17T01:34:12.617Z,17.25
2017-10-17T01:37:14.569Z,18.02
2017-10-17T01:40:23.389Z,15.25
2017-10-17T01:43:28.233Z,14.38
2017-10-17T01:46:30.579Z,17.83
2017-10-17T01:49:42.451Z,18.15
2017-10-17T01:52:45.204Z,14.15
2017-10-17T01:55:47.630Z,23.60
2017-10-17T01:58:50.451Z,15.45
2017-10-17T02:01:52.393Z,16.62
2017-10-17T02:04:54.370Z,16.92
2017-10-17T02:07:56.294Z,16.25
2017-10-17T02:11:00.089Z,13.80
2017-10-17T02:14:02.053Z,16.05
2017-10-17T02:17:04.030Z,14.35
2017-10-17T02:20:06.207Z,20.70
2017-10-17T02:23:09.046Z,18.45
2017-10-17T02:26:16.519Z,14.07
2017-10-17T02:29:21.979Z,19.35
2017-10-17T02:32:23.929Z,22.10
2017-10-17T02:35:30.984Z,20.00
2017-10-17T02:38:32.927Z,17.17
2017-10-17T02:41:35.970Z,18.23
2017-10-17T02:44:39.062Z,16.48
2017-10-17T02:47:41.812Z,15.07
2017-10-17T02:50:43.751Z,15.95
2017-10-17T02:53:46.490Z,15.45
2017-10-17T02:56:48.438Z,20.42
2017-10-17T02:59:58.587Z,14.90
2017-10-17T03:03:02.186Z,19.17
2017-10-17T03:06:04.190Z,14.73
2017-10-17T03:09:06.143Z,17.37
2017-10-17T03:12:08.122Z,18.02
2017-10-17T03:15:12.174Z,23.42
2017-10-17T03:18:14.150Z,22.15
2017-10-17T03:24:54.957Z,21.27
2017-10-17T03:28:04.487Z,16.12
2017-10-17T03:31:07.803Z,22.27
2017-10-17T03:34:14.213Z,21.15
2017-10-17T03:37:47.670Z,16.87
2017-10-17T03:40:51.390Z,17.15
2017-10-17T03:43:53.489Z,18.95
2017-10-17T03:46:55.421Z,22.77
2017-10-17T03:50:08.491Z,18.58
2017-10-17T03:53:31.294Z,23.58
2017-10-17T03:56:33.445Z,17.65
2017-10-17T03:59:35.407Z,19.10
2017-10-17T04:02:37.812Z,19.75
2017-10-17T04:05:41.530Z,16.80
2017-10-17T04:08:44.906Z,17.60
2017-10-17T04:11:46.838Z,19.00
2017-10-17T04:14:52.622Z,15.65
2017-10-17T04:18:04.305Z,18.40
2017-10-17T04:21:07.765Z,21.83
2017-10-17T04:24:21.390Z,16.73
2017-10-17T04:27:25.107Z,18.25
2017-10-17T04:30:38.668Z,17.33
2017-10-17T04:33:46.401Z,19.37
2017-10-17T04:36:59.637Z,27.17
2017-10-17T04:40:01.938Z,17.98
2017-10-17T04:43:15.899Z,20.05
2017-10-17T04:46:23.484Z,17.33
2017-10-17T04:49:47.902Z,22.60
2017-10-17T04:56:24.282Z,20.90
2017-10-17T04:59:34.989Z,25.48
2017-10-17T05:02:38.525Z,24.50
2017-10-17T05:05:43.896Z,21.15
2017-10-17T05:08:50.095Z,17.65
2017-10-17T05:11:52.043Z,23.05
2017-10-17T05:14:54.148Z,19.73
2017-10-17T05:18:01.406Z,23.45
2017-10-17T05:21:03.345Z,23.58
2017-10-17T05:24:28.686Z,22.58
2017-10-17T05:31:20.443Z,29.35
2017-10-17T05:34:26.785Z,20.12
2017-10-17T05:37:28.761Z,20.08
2017-10-17T05:40:30.813Z,26.08
2017-10-17T05:43:55.319Z,25.30
2017-10-17T05:46:59.894Z,28.02
2017-10-17T05:50:15.162Z,28.98
2017-10-17T05:53:17.867Z,22.23
2017-10-17T05:56:20.589Z,26.95
2017-10-17T05:59:22.547Z,21.27
2017-10-17T06:02:25.290Z,24.55
2017-10-17T06:05:27.259Z,22.85
2017-10-17T06:08:29.848Z,21.70
2017-10-17T06:11:31.773Z,27.92
2017-10-17T06:14:34.112Z,24.37
2017-10-17T06:17:36.926Z,24.55
2017-10-17T06:20:38.998Z,27.05
2017-10-17T06:23:41.707Z,27.70
2017-10-17T06:26:43.761Z,32.65
2017-10-17T06:29:45.753Z,29.83
2017-10-17T06:32:48.488Z,24.05
2017-10-17T06:35:50.420Z,27.17
2017-10-17T06:38:52.477Z,27.90
2017-10-17T06:41:54.410Z,27.23
2017-10-17T06:44:57.509Z,27.10
2017-10-17T06:47:59.467Z,30.60
2017-10-17T06:51:01.851Z,27.98
2017-10-17T06:54:03.781Z,25.10
2017-10-17T06:57:06.495Z,26.60
2017-10-17T07:00:09.210Z,25.75
2017-10-17T07:03:11.267Z,27.52
2017-10-17T07:06:13.265Z,26.50
2017-10-17T07:09:16.035Z,21.65
2017-10-17T07:12:18.034Z,26.30
2017-10-17T07:15:20.613Z,22.25
2017-10-17T07:18:22.611Z,27.13
2017-10-17T07:21:24.605Z,30.00
2017-10-17T07:24:27.306Z,26.90
2017-10-17T07:27:30.327Z,24.40
2017-10-17T07:30:33.114Z,30.15
2017-10-17T07:33:35.895Z,26.15
2017-10-17T07:36:38.593Z,25.17
2017-10-17T07:39:40.586Z,26.27
2017-10-17T07:42:44.119Z,27.40
2017-10-17T07:45:47.169Z,24.37
2017-10-17T07:48:49.098Z,27.33
2017-10-17T07:51:51.054Z,27.33
2017-10-17T07:54:52.981Z,26.87
2017-10-17T07:57:55.708Z,22.27
2017-10-17T08:00:57.658Z,22.10
2017-10-17T08:04:00.482Z,29.77
2017-10-17T08:07:02.434Z,25.30
2017-10-17T08:10:04.542Z,22.52
2017-10-17T08:13:06.574Z,22.50
2017-10-17T08:16:08.585Z,19.73
2017-10-17T08:19:11.273Z,23.40
2017-10-17T08:22:13.246Z,22.35
2017-10-17T08:25:15.200Z,19.67
2017-10-17T08:28:17.578Z,22.60
2017-10-17T08:31:19.553Z,30.27
2017-10-17T08:34:21.800Z,24.05
2017-10-17T08:37:23.806Z,21.77
2017-10-17T08:40:26.633Z,21.95
2017-10-17T08:43:28.597Z,22.92
2017-10-17T08:46:31.421Z,17.60
2017-10-17T08:49:33.345Z,23.12
2017-10-17T08:52:35.665Z,16.50
2017-10-17T08:55:37.591Z,22.52
2017-10-17T08:58:39.640Z,29.60
2017-10-17T09:01:42.361Z,22.77
2017-10-17T09:04:44.504Z,20.70
2017-10-17T09:07:46.521Z,17.80
2017-10-17T09:10:49.643Z,14.20
2017-10-17T09:13:51.594Z,13.30
2017-10-17T09:16:53.917Z,16.52
2017-10-17T09:19:56.618Z,14.75
2017-10-17T09:22:59.407Z,15.88
2017-10-17T09:26:01.379Z,18.42
2017-10-17T09:29:03.385Z,16.52
2017-10-17T09:32:06.177Z,20.02
2017-10-17T09:35:08.979Z,19.95
2017-10-17T09:38:10.918Z,15.82
2017-10-17T09:41:12.975Z,19.10
2017-10-17T09:44:14.930Z,16.20
2017-10-17T09:47:16.878Z,19.30
2017-10-17T09:50:18.908Z,15.50
2017-10-17T09:53:22.032Z,14.38
2017-10-17T09:56:24.842Z,12.57
2017-10-17T09:59:26.898Z,14.13
2017-10-17T10:02:28.901Z,15.43
2017-10-17T10:05:31.298Z,18.52
2017-10-17T10:08:33.254Z,17.65
2017-10-17T10:11:35.246Z,14.70
2017-10-17T10:14:37.277Z,10.50
2017-10-17T10:17:39.474Z,16.55
2017-10-17T10:20:41.410Z,17.83
2017-10-17T10:23:44.513Z,9.35
2017-10-17T10:26:46.524Z,16.80
2017-10-17T10:29:49.614Z,12.90
2017-10-17T10:32:51.541Z,10.80
2017-10-17T10:35:53.576Z,13.43
2017-10-17T10:38:56.458Z,15.73
2017-10-17T10:41:58.584Z,17.80
2017-10-17T10:45:01.379Z,13.60
2017-10-17T10:48:03.665Z,12.13
2017-10-17T10:51:05.596Z,15.75
2017-10-17T10:54:07.952Z,12.80
2017-10-17T10:57:11.102Z,14.52
2017-10-17T11:00:13.051Z,14.75
2017-10-17T11:03:15.858Z,15.88
2017-10-17T11:06:18.233Z,17.40
2017-10-17T11:09:20.588Z,14.18
2017-10-17T11:12:23.067Z,11.57
2017-10-17T11:15:25.012Z,10.80
2017-10-17T11:18:28.124Z,13.02
2017-10-17T11:21:30.807Z,10.95
2017-10-17T11:24:32.762Z,11.52
2017-10-17T11:27:34.690Z,15.07
2017-10-17T11:30:37.822Z,8.23
2017-10-17T11:33:39.907Z,12.05
2017-10-17T11:36:42.000Z,10.90
2017-10-17T11:39:43.931Z,11.55
2017-10-17T11:42:57.952Z,10.55
2017-10-17T11:45:59.910Z,11.38
2017-10-17T11:49:02.699Z,15.60
2017-10-17T11:52:04.657Z,16.90
2017-10-17T11:55:06.719Z,12.07
2017-10-17T11:58:08.672Z,16.27
2017-10-17T12:01:10.726Z,11.80
2017-10-17T12:04:13.433Z,11.18
2017-10-17T12:07:16.404Z,11.77
2017-10-17T12:10:18.349Z,11.80
2017-10-17T12:13:20.842Z,10.82
2017-10-17T12:16:22.769Z,13.75
2017-10-17T12:19:24.737Z,17.85
2017-10-17T12:22:26.783Z,15.73
2017-10-17T12:25:29.185Z,11.50
2017-10-17T12:28:31.267Z,12.37
2017-10-17T12:31:33.237Z,12.55
2017-10-17T12:34:36.137Z,16.17
2017-10-17T12:37:39.347Z,14.77
2017-10-17T12:40:42.172Z,9.25
2017-10-17T12:43:44.544Z,9.23
2017-10-17T12:46:47.461Z,14.32
2017-10-17T12:49:49.830Z,11.38
2017-10-17T12:52:51.846Z,13.20
2017-10-17T12:55:54.202Z,14.27
2017-10-17T12:58:56.193Z,12.07
2017-10-17T13:01:58.935Z,12.02
2017-10-17T13:05:00.899Z,18.60
2017-10-17T13:08:03.255Z,13.15
2017-10-17T13:11:05.185Z,13.20
2017-10-17T13:14:07.255Z,13.93
2017-10-17T13:17:09.239Z,14.68
2017-10-17T13:20:11.213Z,15.70
2017-10-17T13:23:13.997Z,13.27
2017-10-17T13:26:16.748Z,15.63
2017-10-17T13:29:18.908Z,16.15
2017-10-17T13:32:21.716Z,20.75
2017-10-17T13:35:24.912Z,13.15
2017-10-17T13:38:28.358Z,19.58
2017-10-17T13:41:30.313Z,17.85
2017-10-17T13:44:33.101Z,12.25
2017-10-17T13:47:35.826Z,17.12
2017-10-17T13:50:38.227Z,18.08
2017-10-17T13:53:40.294Z,13.38
2017-10-17T13:56:43.091Z,19.10
2017-10-17T13:59:45.881Z,12.68
2017-10-17T14:02:47.902Z,16.17
2017-10-17T14:05:49.865Z,12.88
2017-10-17T14:08:52.978Z,17.42
2017-10-17T14:11:55.793Z,15.95
2017-10-17T14:14:58.186Z,15.98
2017-10-17T14:18:01.188Z,17.42
2017-10-17T14:21:04.285Z,11.57
2017-10-17T14:24:07.089Z,18.70
2017-10-17T14:27:09.813Z,12.60
2017-10-17T14:30:11.778Z,20.92
2017-10-17T14:33:14.613Z,13.55
2017-10-17T14:36:16.534Z,10.52
2017-10-17T14:39:18.505Z,19.95
2017-10-17T14:42:20.506Z,12.45
2017-10-17T14:45:22.795Z,11.68
2017-10-17T14:48:24.737Z,24.10
2017-10-17T14:51:26.873Z,11.25
2017-10-17T14:54:29.565Z,16.87
2017-10-17T14:57:31.573Z,18.23
2017-10-17T15:00:34.385Z,13.13
2017-10-17T15:03:36.450Z,21.17
2017-10-17T15:06:39.170Z,21.35
2017-10-17T15:09:41.243Z,18.40
2017-10-17T15:12:44.047Z,22.95
2017-10-17T15:15:46.786Z,16.92
2017-10-17T15:18:48.770Z,18.35
2017-10-17T15:21:50.846Z,18.98
2017-10-17T15:24:53.622Z,19.23
2017-10-17T15:27:55.769Z,19.62
2017-10-17T15:30:57.799Z,15.55
2017-10-17T15:34:00.099Z,24.52
2017-10-17T15:37:02.061Z,20.58
2017-10-17T15:40:04.890Z,23.58
2017-10-17T15:43:06.958Z,17.90
2017-10-17T15:46:09.048Z,17.17
2017-10-17T15:49:11.015Z,18.20
2017-10-17T15:52:13.851Z,22.27
2017-10-17T15:55:15.829Z,22.60
2017-10-17T15:58:17.898Z,22.27
2017-10-17T16:01:20.719Z,18.60
2017-10-17T16:04:22.806Z,19.70
2017-10-17T16:07:24.962Z,20.50
2017-10-17T16:10:27.797Z,21.42
2017-10-17T16:13:29.729Z,17.52
2017-10-17T16:16:31.760Z,28.45
2017-10-17T16:19:33.706Z,32.97
2017-10-17T16:22:35.835Z,22.52
2017-10-17T16:25:37.785Z,18.50
2017-10-17T16:28:40.931Z,18.45
2017-10-17T16:31:42.870Z,18.37
2017-10-17T16:34:45.689Z,22.62
2017-10-17T16:37:47.658Z,22.40
2017-10-17T16:40:50.403Z,23.75
2017-10-17T16:43:52.498Z,17.33
2017-10-17T16:46:54.566Z,23.65
2017-10-17T16:49:56.536Z,25.35
2017-10-17T16:52:58.621Z,26.23
2017-10-17T16:56:00.574Z,26.17
2017-10-17T16:59:03.290Z,18.50
2017-10-17T17:02:06.103Z,25.77
2017-10-17T17:05:08.091Z,25.00
2017-10-17T17:08:10.164Z,17.48
2017-10-17T17:11:13.229Z,21.15
2017-10-17T17:14:15.239Z,20.60
2017-10-17T17:17:18.047Z,27.92
2017-10-17T17:20:20.163Z,23.10
2017-10-17T17:23:22.153Z,29.30
2017-10-17T17:26:24.090Z,25.17
2017-10-17T17:29:26.094Z,23.67
2017-10-17T17:32:28.797Z,24.60
2017-10-17T17:35:31.922Z,24.00
2017-10-17T17:38:33.882Z,17.62
2017-10-17T17:41:37.023Z,16.30
2017-10-17T17:44:39.143Z,22.52
2017-10-17T17:47:41.465Z,22.13
2017-10-17T17:50:44.197Z,22.40
2017-10-17T17:53:46.466Z,33.70
2017-10-17T17:56:48.541Z,18.62
2017-10-17T17:59:51.701Z,22.02
2017-10-17T18:02:53.636Z,28.00
2017-10-17T18:05:56.582Z,19.50
2017-10-17T18:08:58.572Z,25.58
2017-10-17T18:12:00.589Z,21.58
2017-10-17T18:15:02.719Z,26.60
2017-10-17T18:18:04.700Z,27.45
2017-10-17T18:21:07.580Z,22.45
2017-10-17T18:24:10.337Z,22.75
2017-10-17T18:27:12.280Z,23.12
2017-10-17T18:30:14.930Z,21.83
2017-10-17T18:33:16.911Z,31.35
2017-10-17T18:36:19.349Z,23.15
2017-10-17T18:39:22.093Z,27.55
2017-10-17T18:42:25.283Z,24.83
2017-10-17T18:45:27.320Z,25.73
2017-10-17T18:48:29.363Z,26.10
2017-10-17T18:51:31.339Z,24.45
2017-10-17T18:54:33.415Z,27.87
2017-10-17T18:57:35.965Z,35.20
2017-10-17T19:00:37.967Z,27.80
2017-10-17T19:03:39.973Z,29.92
2017-10-17T19:06:42.061Z,22.40
2017-10-17T19:09:44.203Z,26.12
2017-10-17T19:12:46.211Z,27.55
2017-10-17T19:15:49.028Z,30.12
2017-10-17T19:18:52.161Z,30.00
2017-10-17T19:21:54.318Z,27.35
2017-10-17T19:24:57.090Z,31.77
2017-10-17T19:27:59.305Z,29.23
2017-10-17T19:31:02.046Z,26.02
2017-10-17T19:34:04.020Z,29.45
2017-10-17T19:37:06.097Z,29.58
2017-10-17T19:40:08.045Z,27.55
2017-10-17T19:43:10.447Z,30.50
2017-10-17T19:46:13.288Z,22.17
2017-10-17T19:49:15.290Z,34.00
2017-10-17T19:52:17.271Z,23.92
2017-10-17T19:55:19.416Z,28.90
2017-10-17T19:58:22.852Z,27.00
2017-10-17T20:01:25.237Z,27.77
2017-10-17T20:04:27.178Z,32.47
2017-10-17T20:07:29.169Z,24.60
2017-10-17T20:10:31.906Z,24.42
2017-10-17T20:13:34.176Z,25.17
2017-10-17T20:16:36.975Z,28.23
2017-10-17T20:19:40.110Z,28.80
2017-10-17T20:22:42.082Z,19.83
2017-10-17T20:25:44.314Z,27.42
2017-10-17T20:28:46.349Z,24.37
2017-10-17T20:31:48.437Z,28.20
2017-10-17T20:34:50.383Z,29.63
2017-10-17T20:37:53.695Z,27.92
2017-10-17T20:40:55.667Z,35.70
2017-10-17T20:43:57.711Z,30.92
2017-10-17T20:47:00.437Z,31.75
2017-10-17T20:50:02.823Z,22.87
2017-10-17T20:53:04.790Z,34.15
2017-10-17T20:56:07.206Z,22.23
2017-10-17T20:59:09.195Z,25.65
2017-10-17T21:02:11.277Z,33.63
2017-10-17T21:05:13.942Z,37.83
2017-10-17T21:08:16.840Z,30.33
2017-10-17T21:11:19.573Z,39.33
2017-10-17T21:14:21.581Z,30.15
2017-10-17T21:17:24.382Z,32.95
2017-10-17T21:20:26.613Z,32.67
2017-10-17T21:23:29.553Z,34.40
2017-10-17T21:26:31.551Z,31.73
2017-10-17T21:29:33.489Z,34.72
2017-10-17T21:32:36.623Z,36.80
2017-10-17T21:35:38.782Z,35.42
2017-10-17T21:38:41.589Z,44.85
2017-10-17T21:41:44.420Z,31.10
2017-10-17T21:44:46.426Z,28.87
2017-10-17T21:47:48.513Z,23.58
2017-10-17T21:50:50.546Z,31.58
2017-10-17T21:53:53.358Z,28.87
2017-10-17T21:56:55.555Z,34.00
2017-10-17T21:59:57.513Z,39.85
2017-10-17T22:03:00.674Z,34.42
2017-10-17T22:06:02.640Z,29.87
2017-10-17T22:09:04.698Z,40.07
2017-10-17T22:12:07.440Z,35.13
2017-10-17T22:15:09.817Z,29.63
2017-10-17T22:18:11.794Z,34.43
2017-10-17T22:21:13.813Z,48.80
2017-10-17T22:24:15.757Z,38.33
2017-10-17T22:27:17.932Z,42.65
2017-10-17T22:30:20.651Z,31.30
2017-10-17T22:33:22.703Z,35.53
2017-10-17T22:36:24.674Z,38.67
2017-10-17T22:39:27.729Z,35.90
2017-10-17T22:42:29.684Z,41.17
2017-10-17T22:45:32.467Z,34.10
2017-10-17T22:48:34.501Z,28.60
2017-10-17T22:51:36.490Z,37.57
2017-10-17T22:54:38.410Z,38.23
2017-10-17T22:57:40.374Z,43.97
2017-10-17T23:00:42.330Z,28.87
2017-10-17T23:03:44.401Z,26.97
2017-10-17T23:06:46.379Z,35.00
2017-10-17T23:09:48.659Z,27.73
2017-10-17T23:12:51.472Z,29.17
2017-10-17T23:15:54.555Z,32.40
2017-10-17T23:19:08.637Z,38.87
2017-10-17T23:22:11.749Z,35.00
2017-10-17T23:25:15.357Z,37.67
2017-10-17T23:28:17.960Z,34.80
2017-10-17T23:31:19.954Z,25.53
2017-10-17T23:34:22.954Z,26.33
2017-10-17T23:37:26.234Z,34.60
2017-10-17T23:40:28.805Z,31.13
2017-10-17T23:43:30.735Z,21.67
2017-10-17T23:46:33.051Z,31.23
2017-10-17T23:49:35.009Z,34.97
2017-10-17T23:52:36.985Z,33.13
2017-10-17T23:55:38.930Z,33.20
2017-10-17T23:58:40.923Z,29.87
